Time;durP1;ratioP1;P1;durP2;ratioP2;P2;SDS_P1;SDS_P2;PMS_P1;PMS_P2;Temp;Humidity;BMP_temperature;BMP_pressure;BME280_temperature;BME280_humidity;BME280_pressure;Samples;Min_cycle;Max_cycle;Signal;HPM_P1;HPM_P2
2021/03/26 00:01:05;;;;;;;111.87;59.07;;;77.60;2227.20;;;;;;4772220;30;20028;-83
2021/03/26 00:03:35;;;;;;;88.03;51.23;;;77.70;2176.00;;;;;;4769531;30;20044;-78
2021/03/26 00:06:07;;;;;;;83.20;45.27;;;77.60;2201.60;;;;;;4770934;30;20067;-80
2021/03/26 00:08:33;;;;;;;74.50;47.92;;;77.60;2201.60;;;;;;4771871;30;20031;-78
2021/03/26 00:10:59;;;;;;;78.23;46.03;;;77.60;2176.00;;;;;;4771044;30;20038;-78
2021/03/26 00:13:25;;;;;;;73.23;43.53;;;77.70;2176.00;;;;;;4769179;30;20142;-78
2021/03/26 00:15:51;;;;;;;78.90;43.77;;;77.60;2227.20;;;;;;4770163;30;20040;-80
2021/03/26 00:18:17;;;;;;;77.13;43.40;;;77.60;2201.60;;;;;;4770597;30;20490;-81
2021/03/26 00:20:42;;;;;;;88.47;49.00;;;77.70;2201.60;;;;;;4769087;30;20036;-80
2021/03/26 00:23:08;;;;;;;88.40;49.80;;;77.70;2176.00;;;;;;4770134;30;20396;-78
2021/03/26 00:25:35;;;;;;;82.23;44.90;;;77.70;2176.00;;;;;;4770155;30;20028;-78
2021/03/26 00:28:01;;;;;;;86.60;46.83;;;77.70;2201.60;;;;;;4891018;24;20520;-78
2021/03/26 00:30:27;;;;;;;90.70;47.93;;;77.70;2176.00;;;;;;4779720;29;20125;-80
2021/03/26 00:32:53;;;;;;;89.70;50.33;;;77.70;2150.40;;;;;;4805894;29;20030;-80
2021/03/26 00:35:20;;;;;;;90.17;52.47;;;77.70;2176.00;;;;;;4788898;29;20043;-79
2021/03/26 00:37:46;;;;;;;77.47;44.40;;;77.70;2150.40;;;;;;4802282;29;20496;-79
2021/03/26 00:40:14;;;;;;;70.73;41.57;;;77.70;2176.00;;;;;;4774022;30;20136;-79
2021/03/26 00:42:41;;;;;;;78.67;44.77;;;77.60;2201.60;;;;;;4796916;29;20030;-81
2021/03/26 00:45:09;;;;;;;77.90;45.77;;;77.60;2201.60;;;;;;4791344;29;20176;-80
2021/03/26 00:47:36;;;;;;;74.17;43.63;;;77.60;2176.00;;;;;;4805486;29;20026;-80
2021/03/26 00:50:23;;;;;;;85.27;48.77;;;77.60;2176.00;;;;;;4780908;30;20126;-81
2021/03/26 00:52:50;;;;;;;112.00;60.67;;;77.60;2201.60;;;;;;4775134;30;20028;-79
2021/03/26 00:55:15;;;;;;;108.13;60.10;;;77.70;2150.40;;;;;;4790717;29;20027;-80
2021/03/26 00:57:41;;;;;;;128.70;66.13;;;77.70;2176.00;;;;;;4795903;29;20502;-80
2021/03/26 01:00:10;;;;;;;107.90;56.67;;;77.60;2176.00;;;;;;4792970;29;20126;-80
2021/03/26 01:02:36;;;;;;;90.17;52.10;;;77.60;2201.60;;;;;;4808659;29;20035;-79
2021/03/26 01:05:08;;;;;;;92.03;49.07;;;77.50;2201.60;;;;;;4792169;29;20401;-78
2021/03/26 01:07:34;;;;;;;90.72;50.08;;;77.60;2201.60;;;;;;4805037;29;20023;-80
2021/03/26 01:10:00;;;;;;;75.63;43.00;;;77.60;2176.00;;;;;;4790827;30;20110;-78
2021/03/26 01:12:26;;;;;;;61.20;36.27;;;77.50;2201.60;;;;;;4774607;30;20400;-79
2021/03/26 01:14:51;;;;;;;82.23;44.63;;;77.30;2227.20;;;;;;4774522;30;20039;-83
2021/03/26 01:17:17;;;;;;;64.87;37.83;;;77.30;2176.00;;;;;;4773880;30;20056;-78
2021/03/26 01:19:43;;;;;;;84.60;48.33;;;77.40;2176.00;;;;;;4790537;29;20046;-78
2021/03/26 01:22:12;;;;;;;63.33;35.73;;;77.40;2176.00;;;;;;4790538;30;20027;-78
2021/03/26 01:24:38;;;;;;;69.00;37.07;;;77.40;2176.00;;;;;;4774997;30;20443;-79
2021/03/26 01:27:04;;;;;;;60.30;33.70;;;77.40;2176.00;;;;;;4791064;29;20068;-78
2021/03/26 01:29:29;;;;;;;65.27;36.87;;;77.30;2201.60;;;;;;4787722;29;20039;-82
2021/03/26 01:31:55;;;;;;;77.10;39.90;;;77.40;2176.00;;;;;;4774957;30;20465;-81
2021/03/26 01:34:23;;;;;;;92.07;52.30;;;77.40;2176.00;;;;;;4775430;29;20031;-80
2021/03/26 01:36:49;;;;;;;106.73;57.03;;;77.30;2227.20;;;;;;4784617;29;20392;-83
2021/03/26 01:39:15;;;;;;;100.37;55.63;;;77.00;2227.20;;;;;;4809532;29;20055;-79
2021/03/26 01:41:47;;;;;;;93.17;50.80;;;77.20;2227.20;;;;;;4809500;29;20095;-83
2021/03/26 01:44:16;;;;;;;102.47;57.85;;;77.20;2227.20;;;;;;4793076;29;20030;-83
2021/03/26 01:46:44;;;;;;;96.93;54.70;;;77.10;2227.20;;;;;;4808237;29;20026;-81
2021/03/26 01:49:10;;;;;;;88.97;54.23;;;77.20;2201.60;;;;;;4808050;29;20027;-85
2021/03/26 01:51:40;;;;;;;109.27;66.07;;;77.20;2227.20;;;;;;4807088;29;20147;-79
2021/03/26 01:54:09;;;;;;;103.03;55.03;;;52.10;2227.20;;;;;;4791743;29;20034;-84
2021/03/26 01:56:37;;;;;;;103.07;61.00;;;52.00;2227.20;;;;;;4808281;29;20034;-79
2021/03/26 01:59:04;;;;;;;100.87;56.00;;;51.80;2227.20;;;;;;4778969;30;20047;-80
2021/03/26 02:01:47;;;;;;;98.23;57.50;;;51.60;2227.20;;;;;;4789883;30;20080;-83
2021/03/26 02:04:24;;;;;;;104.88;57.10;;;51.50;2227.20;;;;;;4789879;29;20062;-80
2021/03/26 02:06:52;;;;;;;104.73;56.10;;;51.30;2227.20;;;;;;4773559;30;20042;-80
2021/03/26 02:09:21;;;;;;;107.53;60.63;;;51.30;2227.20;;;;;;4789980;30;20027;-80
2021/03/26 02:11:55;;;;;;;104.70;56.43;;;51.30;2227.20;;;;;;4774306;30;20035;-79
2021/03/26 02:14:29;;;;;;;116.37;67.77;;;51.40;2227.20;;;;;;4773849;30;20152;-79
2021/03/26 02:16:54;;;;;;;103.20;56.63;;;51.30;2227.20;;;;;;4789697;30;20515;-84
2021/03/26 02:19:28;;;;;;;108.83;59.90;;;51.20;2227.20;;;;;;4789543;29;20031;-83
2021/03/26 02:21:54;;;;;;;104.83;58.80;;;51.40;2227.20;;;;;;4773360;30;20117;-81
2021/03/26 02:24:22;;;;;;;111.23;60.40;;;51.50;2227.20;;;;;;4775974;29;20193;-78
2021/03/26 02:26:51;;;;;;;114.00;60.80;;;51.40;2227.20;;;;;;4807211;29;20031;-78
2021/03/26 02:29:26;;;;;;;109.73;59.17;;;51.50;2227.20;;;;;;4788328;30;20051;-82
2021/03/26 02:32:01;;;;;;;104.90;63.13;;;51.50;2227.20;;;;;;4789477;29;20116;-83
2021/03/26 02:34:28;;;;;;;105.83;58.20;;;51.40;2227.20;;;;;;4787711;30;20077;-85
2021/03/26 02:37:01;;;;;;;101.20;55.33;;;51.20;2227.20;;;;;;4787990;30;20057;-83
2021/03/26 02:39:47;;;;;;;93.73;52.83;;;51.30;2227.20;;;;;;4788136;30;20038;-80
2021/03/26 02:42:22;;;;;;;87.90;48.20;;;51.50;2227.20;;;;;;4787673;30;20039;-84
2021/03/26 02:45:16;;;;;;;80.80;46.87;;;51.40;2227.20;;;;;;4773003;30;20467;-78
2021/03/26 02:47:52;;;;;;;95.73;50.90;;;51.50;2227.20;;;;;;4737057;30;20070;-78
2021/03/26 02:50:44;;;;;;;80.87;46.40;;;51.50;2227.20;;;;;;4751388;30;20088;-81
2021/03/26 02:53:18;;;;;;;80.53;44.08;;;51.40;2227.20;;;;;;4751611;30;20044;-81
2021/03/26 02:55:57;;;;;;;70.97;41.57;;;51.20;2227.20;;;;;;4736755;30;20541;-82
2021/03/26 02:58:32;;;;;;;77.10;43.93;;;26.50;2201.60;;;;;;4751318;30;20152;-82
2021/03/26 03:01:07;;;;;;;68.87;40.83;;;51.20;2227.20;;;;;;4736604;30;20152;-79
2021/03/26 03:03:35;;;;;;;62.20;38.83;;;26.40;2201.60;;;;;;4751557;30;20375;-82
2021/03/26 03:06:24;;;;;;;68.03;41.10;;;26.40;2201.60;;;;;;4751161;30;20097;-81
2021/03/26 03:08:50;;;;;;;69.07;41.90;;;26.50;2201.60;;;;;;4751362;30;20389;-83
2021/03/26 03:11:24;;;;;;;67.07;40.30;;;26.20;2201.60;;;;;;4751085;30;20043;-85
2021/03/26 03:14:02;;;;;;;75.90;43.50;;;26.40;2201.60;;;;;;4751325;30;20036;-78
2021/03/26 03:17:03;;;;;;;72.53;42.83;;;26.50;2201.60;;;;;;4751164;30;20033;-84
2021/03/26 03:19:45;;;;;;;71.97;40.17;;;51.20;2227.20;;;;;;4751134;30;20067;-79
2021/03/26 03:22:26;;;;;;;73.97;40.80;;;51.20;2227.20;;;;;;4736383;30;20478;-79
2021/03/26 03:24:56;;;;;;;68.50;42.23;;;51.20;2227.20;;;;;;4774010;30;20036;-80
2021/03/26 03:27:34;;;;;;;73.10;40.37;;;26.50;2201.60;;;;;;4789443;29;20035;-79
2021/03/26 03:30:06;;;;;;;73.43;43.13;;;26.30;2201.60;;;;;;4790491;29;20138;-79
2021/03/26 03:32:45;;;;;;;66.07;38.27;;;26.10;2201.60;;;;;;4806963;29;20031;-82
2021/03/26 03:35:36;;;;;;;70.93;40.13;;;26.10;2201.60;;;;;;4790653;29;20034;-81
2021/03/26 03:38:23;;;;;;;69.33;39.87;;;26.20;2201.60;;;;;;4806610;29;20046;-78
2021/03/26 03:41:06;;;;;;;78.33;38.73;;;26.10;2201.60;;;;;;4806834;29;20030;-78
2021/03/26 03:43:46;;;;;;;62.30;37.17;;;26.20;2201.60;;;;;;4806347;29;20037;-79
2021/03/26 03:46:34;;;;;;;66.20;38.03;;;26.20;2201.60;;;;;;4790200;29;20035;-78
2021/03/26 03:49:17;;;;;;;61.37;39.03;;;25.90;2201.60;;;;;;4716230;30;20041;-79
2021/03/26 03:51:58;;;;;;;73.80;42.28;;;25.80;2201.60;;;;;;4715605;30;20057;-81
2021/03/26 03:54:51;;;;;;;72.13;43.43;;;25.80;2201.60;;;;;;4701305;30;20041;-78
2021/03/26 03:57:27;;;;;;;76.07;45.78;;;25.90;2201.60;;;;;;4701198;30;20080;-86
2021/03/26 04:00:04;;;;;;;80.83;47.90;;;26.00;2201.60;;;;;;4701590;30;20049;-79
2021/03/26 04:03:05;;;;;;;86.57;49.83;;;26.20;2201.60;;;;;;4704744;30;20026;-79
2021/03/26 04:05:37;;;;;;;77.80;46.67;;;26.20;2201.60;;;;;;4658985;30;20110;-81
2021/03/26 04:08:15;;;;;;;77.77;44.43;;;26.30;2201.60;;;;;;4656128;30;20034;-80
2021/03/26 04:10:43;;;;;;;77.33;45.83;;;26.30;2201.60;;;;;;4654914;30;20166;-81
2021/03/26 04:13:15;;;;;;;74.60;43.70;;;26.40;2201.60;;;;;;4654818;30;20145;-79
2021/03/26 04:15:44;;;;;;;77.05;46.47;;;26.50;2201.60;;;;;;4657678;30;20043;-79
2021/03/26 04:18:18;;;;;;;81.60;43.97;;;26.50;2201.60;;;;;;4667904;30;20540;-78
2021/03/26 04:21:03;;;;;;;89.87;49.80;;;26.50;2201.60;;;;;;4667371;30;20109;-81
2021/03/26 04:23:34;;;;;;;88.07;51.80;;;26.50;2201.60;;;;;;4668037;30;20091;-77
2021/03/26 04:26:02;;;;;;;87.13;48.83;;;26.50;2201.60;;;;;;4687801;30;20043;-78
2021/03/26 04:28:38;;;;;;;83.80;48.77;;;26.40;2201.60;;;;;;4737334;30;20122;-77
2021/03/26 04:31:08;;;;;;;90.90;51.27;;;26.20;2201.60;;;;;;4736630;30;20036;-86
2021/03/26 04:33:34;;;;;;;84.30;46.87;;;26.40;2201.60;;;;;;4736470;30;20041;-78
2021/03/26 04:36:03;;;;;;;77.13;41.97;;;26.10;2201.60;;;;;;4737316;30;20068;-83
2021/03/26 04:38:44;;;;;;;74.73;43.27;;;26.00;2201.60;;;;;;4737162;30;20522;-86
2021/03/26 04:41:18;;;;;;;85.80;46.30;;;26.20;2201.60;;;;;;4738012;30;20480;-78
2021/03/26 04:43:53;;;;;;;82.73;47.60;;;26.30;2201.60;;;;;;4791420;30;20035;-85
2021/03/26 04:46:38;;;;;;;84.40;46.13;;;26.40;2201.60;;;;;;4775644;30;20028;-78
2021/03/26 04:49:36;;;;;;;87.40;48.70;;;26.50;2201.60;;;;;;4775170;30;20023;-79
2021/03/26 04:52:43;;;;;;;93.00;52.23;;;26.50;2201.60;;;;;;4780134;30;20104;-80
2021/03/26 04:55:23;;;;;;;115.53;58.77;;;26.50;2201.60;;;;;;4686534;30;20073;-79
2021/03/26 04:58:02;;;;;;;108.93;60.47;;;26.50;2201.60;;;;;;4700943;30;20144;-85
2021/03/26 05:00:40;;;;;;;101.30;62.33;;;26.50;2201.60;;;;;;4700621;30;20077;-82
2021/03/26 05:03:28;;;;;;;84.13;46.77;;;26.50;2201.60;;;;;;4700579;30;20034;-82
2021/03/26 05:06:01;;;;;;;83.40;46.63;;;26.40;2201.60;;;;;;4685913;30;20049;-81
2021/03/26 05:08:27;;;;;;;84.78;47.80;;;26.50;2201.60;;;;;;4700667;30;20112;-78
2021/03/26 05:10:58;;;;;;;93.27;48.93;;;26.50;2201.60;;;;;;4686232;30;20136;-78
2021/03/26 05:13:41;;;;;;;75.77;44.53;;;26.50;2201.60;;;;;;4686273;30;20104;-79
2021/03/26 05:16:41;;;;;;;84.70;44.92;;;51.20;2227.20;;;;;;4693759;30;20037;-78
2021/03/26 05:19:15;;;;;;;72.20;39.80;;;51.20;2227.20;;;;;;4717970;30;20045;-78
2021/03/26 05:22:00;;;;;;;62.07;37.10;;;51.20;2227.20;;;;;;4703165;30;20033;-81
2021/03/26 05:24:33;;;;;;;65.37;35.53;;;51.20;2227.20;;;;;;4717983;30;20044;-87
2021/03/26 05:27:00;;;;;;;63.27;36.00;;;51.20;2227.20;;;;;;4702352;30;20041;-78
2021/03/26 05:29:26;;;;;;;82.77;48.03;;;51.20;2227.20;;;;;;4719472;29;20100;-86
2021/03/26 05:32:30;;;;;;;105.03;55.77;;;51.20;2227.20;;;;;;4782123;30;20374;-79
2021/03/26 05:35:09;;;;;;;89.10;50.05;;;51.20;2227.20;;;;;;4774223;30;20031;-81
2021/03/26 05:37:44;;;;;;;112.97;60.97;;;51.20;2227.20;;;;;;4774145;30;20452;-86
2021/03/26 05:40:47;;;;;;;122.77;73.37;;;26.50;2201.60;;;;;;4774160;30;20061;-81
2021/03/26 05:43:27;;;;;;;135.25;74.50;;;26.40;2201.60;;;;;;4773951;30;20382;-82
2021/03/26 05:46:02;;;;;;;131.40;74.77;;;26.30;2201.60;;;;;;4773925;30;20039;-84
2021/03/26 05:48:40;;;;;;;119.07;71.07;;;26.30;2201.60;;;;;;4774195;30;20122;-79
2021/03/26 05:51:20;;;;;;;122.17;68.47;;;26.30;2201.60;;;;;;4773633;30;20122;-80
2021/03/26 05:53:55;;;;;;;110.10;67.20;;;26.50;2201.60;;;;;;4779715;29;20037;-79
2021/03/26 05:56:32;;;;;;;105.13;66.07;;;26.50;2201.60;;;;;;4785801;29;20022;-80
2021/03/26 05:59:04;;;;;;;134.70;78.93;;;51.30;2227.20;;;;;;4795962;29;20138;-81
2021/03/26 06:01:48;;;;;;;147.73;82.17;;;51.40;2227.20;;;;;;4773362;30;20431;-79
2021/03/26 06:04:38;;;;;;;165.63;85.53;;;51.50;2227.20;;;;;;4786866;30;20031;-81
2021/03/26 06:07:25;;;;;;;166.53;81.40;;;51.70;2227.20;;;;;;4773242;30;20039;-79
2021/03/26 06:09:54;;;;;;;150.23;82.57;;;51.80;2227.20;;;;;;4773517;30;20084;-79
2021/03/26 06:12:45;;;;;;;155.83;79.50;;;51.80;2227.20;;;;;;4789553;30;20504;-79
2021/03/26 06:15:48;;;;;;;160.63;79.87;;;51.90;2227.20;;;;;;4773132;30;20038;-82
2021/03/26 06:18:55;;;;;;;162.73;82.63;;;52.00;2227.20;;;;;;4774807;30;20039;-80
2021/03/26 06:21:49;;;;;;;160.87;84.60;;;52.10;2227.20;;;;;;4774546;30;20032;-83
2021/03/26 06:24:30;;;;;;;96.43;52.43;;;76.80;2227.20;;;;;;4777587;30;20098;-79
2021/03/26 06:27:02;;;;;;;95.93;49.93;;;76.90;2227.20;;;;;;4779736;29;20446;-80
2021/03/26 06:29:54;;;;;;;95.57;52.53;;;76.90;2227.20;;;;;;4811714;29;20057;-79
2021/03/26 06:32:40;;;;;;;76.07;43.93;;;76.90;2227.20;;;;;;4716364;30;20267;-80
2021/03/26 06:35:28;;;;;;;71.50;42.73;;;76.90;2227.20;;;;;;4704363;30;20046;-80
2021/03/26 06:38:22;;;;;;;70.37;41.03;;;76.90;2227.20;;;;;;4703250;30;20067;-80
2021/03/26 06:40:52;;;;;;;70.60;39.20;;;77.00;2227.20;;;;;;4634137;30;20039;-79
2021/03/26 06:43:40;;;;;;;76.30;37.87;;;77.20;2227.20;;;;;;4657882;30;20045;-78
2021/03/26 06:46:30;;;;;;;62.37;38.23;;;77.30;2227.20;;;;;;4665945;30;20427;-78
2021/03/26 06:49:28;;;;;;;76.67;41.70;;;77.40;2227.20;;;;;;4666724;30;20039;-79
2021/03/26 06:52:28;;;;;;;79.37;40.50;;;77.50;2227.20;;;;;;4650902;30;20042;-79
2021/03/26 06:55:10;;;;;;;78.23;41.73;;;77.60;2227.20;;;;;;4600563;31;20036;-81
2021/03/26 06:58:26;;;;;;;71.47;38.03;;;77.70;2227.20;;;;;;4600528;31;20550;-85
2021/03/26 07:01:17;;;;;;;66.87;40.23;;;102.40;2227.20;;;;;;4563925;31;20045;-83
2021/03/26 07:04:15;;;;;;;62.17;38.70;;;102.50;2201.60;;;;;;4560046;31;20049;-77
2021/03/26 07:06:52;;;;;;;62.47;36.57;;;102.60;2227.20;;;;;;4549507;31;20087;-78
2021/03/26 07:09:46;;;;;;;59.93;35.13;;;102.70;2227.20;;;;;;4588937;31;20115;-80
2021/03/26 07:12:40;;;;;;;57.00;35.13;;;102.80;2176.00;;;;;;4594052;31;20048;-79
2021/03/26 07:15:36;;;;;;;55.67;35.23;;;103.00;2124.80;;;;;;4613613;31;20047;-78
2021/03/26 07:18:16;;;;;;;66.63;33.70;;;103.00;2201.60;;;;;;4645185;30;20058;-79
2021/03/26 07:21:05;;;;;;;52.47;33.70;;;103.10;2150.40;;;;;;4646079;30;20038;-79
2021/03/26 07:23:55;;;;;;;60.03;36.60;;;103.20;2150.40;;;;;;4650052;30;20201;-78
2021/03/26 07:26:42;;;;;;;68.87;41.83;;;103.30;2150.40;;;;;;4650000;30;20042;-78
2021/03/26 07:29:29;;;;;;;62.10;38.63;;;128.00;2176.00;;;;;;4649635;30;20117;-78
2021/03/26 07:32:20;;;;;;;53.93;35.70;;;128.10;2073.60;;;;;;4673474;30;20052;-79
2021/03/26 07:35:04;;;;;;;61.33;35.57;;;128.20;2150.40;;;;;;4695794;30;20041;-78
2021/03/26 07:37:48;;;;;;;56.67;33.57;;;128.30;2099.20;;;;;;4788056;30;20035;-78
2021/03/26 07:41:05;;;;;;;50.97;30.97;;;128.40;2099.20;;;;;;4788262;30;20031;-79
2021/03/26 07:44:04;;;;;;;56.67;32.43;;;128.60;2099.20;;;;;;4684991;30;20045;-79
2021/03/26 07:47:06;;;;;;;45.47;30.03;;;153.60;1971.20;;;;;;4698251;30;20046;-79
2021/03/26 07:49:56;;;;;;;47.77;29.47;;;153.90;1920.00;;;;;;4705962;30;20044;-81
2021/03/26 07:52:33;;;;;;;44.70;28.17;;;154.00;1920.00;;;;;;4700390;30;20132;-82
2021/03/26 07:55:19;;;;;;;40.97;26.33;;;154.10;1945.60;;;;;;4695085;30;20112;-81
2021/03/26 07:58:04;;;;;;;42.60;28.67;;;154.30;1945.60;;;;;;4710296;30;20076;-81
2021/03/26 08:00:37;;;;;;;49.53;31.93;;;179.20;1945.60;;;;;;4696764;30;20049;-81
2021/03/26 08:03:19;;;;;;;52.13;30.27;;;179.20;1945.60;;;;;;4708004;30;20045;-81
2021/03/26 08:06:18;;;;;;;62.80;30.13;;;179.40;1945.60;;;;;;4704066;30;20045;-82
2021/03/26 08:09:02;;;;;;;45.73;28.30;;;179.50;1817.60;;;;;;4704284;30;20803;-82
2021/03/26 08:11:46;;;;;;;45.60;29.00;;;179.60;1817.60;;;;;;4694777;30;20396;-81
2021/03/26 08:14:34;;;;;;;78.90;41.90;;;179.80;1766.40;;;;;;4696774;30;20131;-81
2021/03/26 08:17:21;;;;;;;67.80;38.53;;;180.00;1715.20;;;;;;4703863;30;20076;-81
2021/03/26 08:20:00;;;;;;;52.83;33.00;;;180.10;1817.60;;;;;;4758881;29;20043;-81
2021/03/26 08:22:44;;;;;;;49.27;29.63;;;205.00;1817.60;;;;;;4785683;30;20036;-82
2021/03/26 08:25:24;;;;;;;43.13;27.60;;;205.00;1766.40;;;;;;4775771;30;20481;-83
2021/03/26 08:28:15;;;;;;;44.33;28.27;;;205.40;1971.20;;;;;;4779404;30;20055;-84
2021/03/26 08:30:51;;;;;;;49.60;33.90;;;230.80;1868.80;;;;;;4778019;29;20023;-81
2021/03/26 08:33:31;;;;;;;53.63;32.93;;;230.70;1689.60;;;;;;4775033;30;20085;-82
2021/03/26 08:36:41;;;;;;;54.67;33.70;;;230.70;1715.20;;;;;;4773753;30;20034;-82
2021/03/26 08:39:23;;;;;;;54.20;31.53;;;230.70;1664.00;;;;;;4743301;30;20063;-82
2021/03/26 08:41:58;;;;;;;51.57;30.87;;;230.90;1689.60;;;;;;4738968;30;20417;-83
2021/03/26 08:44:26;;;;;;;51.73;31.50;;;231.00;1638.40;;;;;;4745649;30;20534;-83
2021/03/26 08:46:54;;;;;;;54.60;30.07;;;231.00;1561.60;;;;;;4751747;30;20507;-82
2021/03/26 08:49:23;;;;;;;42.93;28.43;;;231.00;1536.00;;;;;;4737987;30;20131;-81
2021/03/26 08:52:00;;;;;;;45.77;29.07;;;231.30;1510.40;;;;;;4740622;30;20879;-82
2021/03/26 08:54:54;;;;;;;50.22;28.33;;;256.20;1484.80;;;;;;4748907;30;20071;-80
2021/03/26 08:57:32;;;;;;;49.80;30.10;;;256.40;1459.20;;;;;;4677503;30;20054;-80
2021/03/26 09:00:03;;;;;;;51.95;32.03;;;256.70;1484.80;;;;;;4689259;30;20083;-79
2021/03/26 09:02:56;;;;;;;50.42;28.27;;;256.90;1484.80;;;;;;4676837;30;20056;-78
2021/03/26 09:05:37;;;;;;;45.10;27.57;;;281.70;1484.80;;;;;;4685257;30;20429;-79
2021/03/26 09:08:36;;;;;;;37.60;24.63;;;281.70;1382.40;;;;;;4700208;30;20278;-80
2021/03/26 09:11:20;;;;;;;31.38;20.40;;;256.90;1331.20;;;;;;4700328;30;20076;-80
2021/03/26 09:14:16;;;;;;;54.72;30.08;;;281.60;1331.20;;;;;;4699803;30;20038;-82
2021/03/26 09:17:05;;;;;;;36.13;22.17;;;281.80;1331.20;;;;;;4686194;30;20049;-80
2021/03/26 09:19:38;;;;;;;35.28;22.15;;;282.20;1280.00;;;;;;4699134;30;20472;-80
2021/03/26 09:22:22;;;;;;;;;;;282.50;1254.40;;;;;;4701060;30;20049;-81
2021/03/26 09:25:01;;;;;;;21.23;12.52;;;307.20;1228.80;;;;;;4715372;30;19914;-80
2021/03/26 09:27:44;;;;;;;25.05;17.15;;;307.60;1203.20;;;;;;4701824;30;20041;-80
2021/03/26 09:30:23;;;;;;;22.10;14.68;;;307.70;1152.00;;;;;;4701460;30;20046;-84
2021/03/26 09:32:53;;;;;;;19.38;13.23;;;307.80;1203.20;;;;;;4704910;30;20038;-81
2021/03/26 09:35:31;;;;;;;24.58;13.18;;;308.00;1126.40;;;;;;4767892;30;20050;-85
2021/03/26 09:38:17;;;;;;;21.65;12.70;;;308.10;1126.40;;;;;;4792017;30;20493;-85
2021/03/26 09:40:51;;;;;;;19.52;12.90;;;308.10;1100.80;;;;;;4775776;30;20038;-80
2021/03/26 09:43:22;;;;;;;20.15;13.15;;;308.10;1100.80;;;;;;4779015;29;20027;-87
2021/03/26 09:46:07;;;;;;;25.60;15.63;;;332.80;1126.40;;;;;;4788797;29;20031;-86
2021/03/26 09:49:08;;;;;;;26.30;17.58;;;307.90;1100.80;;;;;;4793314;29;20035;-87
2021/03/26 09:51:42;;;;;;;20.58;13.88;;;308.10;1152.00;;;;;;4793268;29;20027;-89
2021/03/26 09:54:40;;;;;;;20.33;13.50;;;308.00;1126.40;;;;;;4791161;29;20042;-88
2021/03/26 09:57:38;;;;;;;19.85;13.43;;;332.90;1126.40;;;;;;4787711;29;20042;-87
2021/03/26 10:00:33;;;;;;;21.38;14.73;;;332.90;1100.80;;;;;;4784863;29;20050;-83
2021/03/26 10:03:12;;;;;;;24.02;14.52;;;307.30;1049.60;;;;;;4773598;30;20047;-87
2021/03/26 10:05:55;;;;;;;23.95;15.38;;;308.10;1075.20;;;;;;4780642;29;20059;-80
2021/03/26 10:08:56;;;;;;;25.65;15.40;;;332.80;1075.20;;;;;;4792285;29;20050;-82
2021/03/26 10:11:29;;;;;;;25.33;16.08;;;332.90;1126.40;;;;;;4793395;29;20033;-87
2021/03/26 10:14:03;;;;;;;23.35;15.93;;;333.30;1126.40;;;;;;4792828;29;20560;-82
2021/03/26 10:16:41;;;;;;;24.80;14.18;;;333.40;1024.00;;;;;;4782475;29;20035;-78
2021/03/26 10:19:14;;;;;;;21.63;13.73;;;333.30;998.40;;;;;;4791004;29;20051;-85
2021/03/26 10:21:48;;;;;;;23.85;16.48;;;333.40;1049.60;;;;;;4791490;29;20031;-80
2021/03/26 10:24:36;;;;;;;20.60;11.93;;;333.60;1075.20;;;;;;4791246;29;20038;-81
2021/03/26 10:27:29;;;;;;;26.40;15.88;;;358.50;1049.60;;;;;;4791489;29;20054;-82
2021/03/26 10:30:11;;;;;;;20.02;12.23;;;358.90;1100.80;;;;;;4791168;29;20112;-84
2021/03/26 10:32:37;;;;;;;16.77;11.05;;;359.00;1024.00;;;;;;4790844;29;20527;-83
2021/03/26 10:35:23;;;;;;;15.93;10.07;;;359.00;1049.60;;;;;;4790422;29;20069;-82
2021/03/26 10:38:12;;;;;;;26.13;16.30;;;384.10;1049.60;;;;;;4792278;29;20070;-83
2021/03/26 10:41:06;;;;;;;23.17;13.45;;;384.30;998.40;;;;;;4809292;29;20034;-84
2021/03/26 10:43:35;;;;;;;20.10;13.80;;;384.80;1100.80;;;;;;4791369;29;20083;-81
2021/03/26 10:46:12;;;;;;;17.95;11.95;;;384.60;1024.00;;;;;;4790380;29;20117;-81
2021/03/26 10:49:01;;;;;;;53.67;38.17;;;384.10;998.40;;;;;;4791027;29;20051;-82
2021/03/26 10:51:49;;;;;;;17.33;11.07;;;384.10;998.40;;;;;;4790960;29;20026;-88
2021/03/26 10:54:42;;;;;;;26.83;17.58;;;359.10;1100.80;;;;;;4791045;29;20065;-81
2021/03/26 10:57:11;;;;;;;;;;;358.90;998.40;;;;;;4791355;29;20038;-86
2021/03/26 10:59:43;;;;;;;33.45;16.63;;;359.10;998.40;;;;;;4791473;29;19921;-82
2021/03/26 11:02:24;;;;;;;21.13;14.82;;;358.70;972.80;;;;;;4791042;29;20031;-85
2021/03/26 11:05:08;;;;;;;86.35;56.45;;;358.50;998.40;;;;;;4790998;29;20034;-85
2021/03/26 11:08:03;;;;;;;67.45;48.50;;;359.10;972.80;;;;;;4807133;29;20039;-85
2021/03/26 11:10:41;;;;;;;16.58;11.45;;;359.30;896.00;;;;;;4701818;30;20056;-82
2021/03/26 11:13:25;;;;;;;24.70;16.45;;;359.00;947.20;;;;;;4701806;30;20029;-86
2021/03/26 11:16:21;;;;;;;26.73;17.42;;;359.20;998.40;;;;;;4702336;30;20062;-81
2021/03/26 11:19:19;;;;;;;51.90;27.70;;;358.80;972.80;;;;;;4699085;30;20049;-82
2021/03/26 11:21:47;;;;;;;15.82;9.85;;;358.70;998.40;;;;;;4650201;30;20073;-81
2021/03/26 11:24:15;;;;;;;21.30;12.50;;;384.20;972.80;;;;;;4650466;30;20034;-82
2021/03/26 11:26:53;;;;;;;35.53;24.58;;;384.90;1024.00;;;;;;4664424;30;20046;-83
2021/03/26 11:29:24;;;;;;;18.05;12.57;;;409.80;1049.60;;;;;;4649696;30;20529;-83
2021/03/26 11:31:59;;;;;;;41.40;25.63;;;410.00;998.40;;;;;;4649975;30;20509;-86
2021/03/26 11:34:24;;;;;;;16.80;12.60;;;384.90;921.60;;;;;;4649972;30;20046;-82
2021/03/26 11:36:57;;;;;;;18.80;12.35;;;384.80;896.00;;;;;;4650151;30;20048;-82
2021/03/26 11:39:44;;;;;;;;;;;384.50;947.20;;;;;;4650627;30;20047;-82
2021/03/26 11:42:12;;;;;;;30.00;17.58;;;384.60;998.40;;;;;;4664644;30;19915;-83
2021/03/26 11:44:50;;;;;;;18.55;12.02;;;409.90;1024.00;;;;;;4650366;30;20149;-82
2021/03/26 11:47:25;;;;;;;15.15;10.02;;;410.40;998.40;;;;;;4722319;30;20131;-81
2021/03/26 11:49:59;;;;;;;15.73;10.90;;;435.70;998.40;;;;;;4737053;30;20390;-83
2021/03/26 11:52:26;;;;;;;22.52;10.32;;;435.70;972.80;;;;;;4736448;30;20040;-84
2021/03/26 11:55:15;;;;;;;12.90;10.10;;;435.60;947.20;;;;;;4751346;30;20090;-83
2021/03/26 11:57:54;;;;;;;28.08;21.52;;;435.40;972.80;;;;;;4768244;29;20051;-83
2021/03/26 12:00:26;;;;;;;16.75;12.63;;;435.80;896.00;;;;;;4790671;29;20031;-83
2021/03/26 12:03:29;;;;;;;14.80;11.00;;;436.00;947.20;;;;;;4806803;29;20030;-83
2021/03/26 12:06:20;;;;;;;17.23;14.37;;;460.80;947.20;;;;;;4790244;29;20031;-83
2021/03/26 12:09:25;;;;;;;17.23;11.95;;;436.10;921.60;;;;;;4790785;29;20267;-83
2021/03/26 12:12:05;;;;;;;14.70;10.00;;;461.00;921.60;;;;;;4790624;29;20499;-83
2021/03/26 12:14:40;;;;;;;17.83;12.15;;;461.30;896.00;;;;;;4790363;29;20035;-83
2021/03/26 12:17:27;;;;;;;19.00;12.65;;;461.40;896.00;;;;;;4790178;29;20039;-82
2021/03/26 12:20:30;;;;;;;24.77;13.23;;;461.20;870.40;;;;;;4806192;29;20069;-81
2021/03/26 12:22:58;;;;;;;16.63;11.32;;;460.80;870.40;;;;;;4763023;29;20035;-84
2021/03/26 12:25:56;;;;;;;16.08;11.38;;;410.40;870.40;;;;;;4806577;29;20026;-84
2021/03/26 12:28:33;;;;;;;15.65;11.55;;;410.10;844.80;;;;;;4789041;29;20135;-82
2021/03/26 12:31:14;;;;;;;19.23;12.57;;;384.50;896.00;;;;;;4799349;29;20031;-81
2021/03/26 12:34:06;;;;;;;17.65;11.93;;;409.70;896.00;;;;;;4798997;29;20038;-82
2021/03/26 12:36:44;;;;;;;19.27;11.05;;;384.20;921.60;;;;;;4796260;29;20519;-82
2021/03/26 12:39:19;;;;;;;19.08;12.38;;;384.30;896.00;;;;;;4796419;29;20039;-84
2021/03/26 12:42:01;;;;;;;19.55;11.43;;;409.90;921.60;;;;;;4797568;29;20039;-84
2021/03/26 12:44:32;;;;;;;17.25;12.85;;;435.30;921.60;;;;;;4797289;29;20031;-85
2021/03/26 12:47:06;;;;;;;18.05;12.57;;;436.00;819.20;;;;;;4796812;29;20473;-83
2021/03/26 12:49:52;;;;;;;19.98;11.88;;;435.80;819.20;;;;;;4795722;29;20146;-85
2021/03/26 12:52:33;;;;;;;19.55;14.00;;;435.70;793.60;;;;;;4704171;30;20523;-83
2021/03/26 12:55:20;;;;;;;26.35;17.80;;;460.80;819.20;;;;;;4704462;30;20135;-83
2021/03/26 12:57:53;;;;;;;20.35;14.25;;;436.00;819.20;;;;;;4703803;30;20114;-86
2021/03/26 13:00:30;;;;;;;21.48;16.02;;;436.10;819.20;;;;;;4703903;30;20153;-82
2021/03/26 13:03:05;;;;;;;17.98;11.43;;;410.20;870.40;;;;;;4703561;30;20037;-84
2021/03/26 13:05:31;;;;;;;19.38;13.18;;;435.30;819.20;;;;;;4704284;30;20112;-84